sensor_id;sensor_type;location;lat;lon;timestamp;pressure;altitude;pressure_sealevel;temperature;humidity
49651;BME280;35547;55.676;37.492;2022-08-20T05:17:25;100175.50;;;24.50;nan
49651;BME280;35547;55.676;37.492;2022-08-20T05:18:26;100186.16;;;24.37;nan
49651;BME280;35547;55.676;37.492;2022-08-20T05:19:26;100184.94;;;24.56;nan
49651;BME280;35547;55.676;37.492;2022-08-20T05:20:29;100184.09;;;24.55;nan
49651;BME280;35547;55.676;37.492;2022-08-20T05:21:31;100192.56;;;24.75;nan
49651;BME280;35547;55.676;37.492;2022-08-20T05:22:31;100202.22;;;24.90;nan
49651;BME280;35547;55.676;37.492;2022-08-20T05:23:37;100201.28;;;25.04;nan
49651;BME280;35547;55.676;37.492;2022-08-20T05:24:42;100186.94;;;24.92;nan
49651;BME280;35547;55.676;37.492;2022-08-20T05:25:44;100195.06;;;25.03;nan
49651;BME280;35547;55.676;37.492;2022-08-20T05:26:44;100201.44;;;25.28;nan
49651;BME280;35547;55.676;37.492;2022-08-20T05:27:45;100197.69;;;25.43;nan
49651;BME280;35547;55.676;37.492;2022-08-20T05:28:46;100201.84;;;25.60;nan
49651;BME280;35547;55.676;37.492;2022-08-20T05:29:47;100202.66;;;25.73;nan
49651;BME280;35547;55.676;37.492;2022-08-20T05:30:49;100178.09;;;24.91;nan
49651;BME280;35547;55.676;37.492;2022-08-20T05:31:51;100195.94;;;25.04;nan
49651;BME280;35547;55.676;37.492;2022-08-20T05:32:51;100185.34;;;25.02;nan
49651;BME280;35547;55.676;37.492;2022-08-20T05:33:52;100196.84;;;24.77;nan
49651;BME280;35547;55.676;37.492;2022-08-20T05:34:56;100198.78;;;24.88;nan
49651;BME280;35547;55.676;37.492;2022-08-20T05:35:56;100193.75;;;24.83;nan
49651;BME280;35547;55.676;37.492;2022-08-20T05:36:57;100208.34;;;25.18;nan
49651;BME280;35547;55.676;37.492;2022-08-20T05:37:59;100204.22;;;25.39;nan
49651;BME280;35547;55.676;37.492;2022-08-20T05:39:00;100189.34;;;25.22;nan
49651;BME280;35547;55.676;37.492;2022-08-20T05:40:09;100173.50;;;24.53;nan
49651;BME280;35547;55.676;37.492;2022-08-20T05:41:11;100189.50;;;24.81;nan
49651;BME280;35547;55.676;37.492;2022-08-20T05:42:11;100187.66;;;24.81;nan
49651;BME280;35547;55.676;37.492;2022-08-20T05:43:12;100201.53;;;24.73;nan
49651;BME280;35547;55.676;37.492;2022-08-20T05:44:13;100202.81;;;24.68;nan
49651;BME280;35547;55.676;37.492;2022-08-20T05:45:14;100206.28;;;24.96;nan
49651;BME280;35547;55.676;37.492;2022-08-20T05:46:19;100191.63;;;24.88;nan
49651;BME280;35547;55.676;37.492;2022-08-20T05:47:20;100199.53;;;24.90;nan
49651;BME280;35547;55.676;37.492;2022-08-20T05:48:27;100200.78;;;25.24;nan
49651;BME280;35547;55.676;37.492;2022-08-20T05:49:28;100197.41;;;24.95;nan
49651;BME280;35547;55.676;37.492;2022-08-20T05:50:28;100204.91;;;25.16;nan
49651;BME280;35547;55.676;37.492;2022-08-20T05:51:29;100210.69;;;25.09;nan
49651;BME280;35547;55.676;37.492;2022-08-20T05:52:29;100206.00;;;25.13;nan
49651;BME280;35547;55.676;37.492;2022-08-20T05:53:30;100209.16;;;24.92;nan
49651;BME280;35547;55.676;37.492;2022-08-20T05:54:31;100205.38;;;24.82;nan
49651;BME280;35547;55.676;37.492;2022-08-20T05:55:35;100209.94;;;25.07;nan
49651;BME280;35547;55.676;37.492;2022-08-20T05:56:39;100201.38;;;24.89;nan
49651;BME280;35547;55.676;37.492;2022-08-20T05:57:40;100207.63;;;24.76;nan
49651;BME280;35547;55.676;37.492;2022-08-20T05:58:41;100214.09;;;25.11;nan
49651;BME280;35547;55.676;37.492;2022-08-20T05:59:41;100203.09;;;25.03;nan
49651;BME280;35547;55.676;37.492;2022-08-20T06:00:42;100211.25;;;24.75;nan
49651;BME280;35547;55.676;37.492;2022-08-20T06:01:42;100204.53;;;24.82;nan
49651;BME280;35547;55.676;37.492;2022-08-20T06:02:43;100200.34;;;24.65;nan
49651;BME280;35547;55.676;37.492;2022-08-20T06:04:03;100211.63;;;24.96;nan
49651;BME280;35547;55.676;37.492;2022-08-20T06:05:22;100202.03;;;24.39;nan
49651;BME280;35547;55.676;37.492;2022-08-20T06:06:23;100203.94;;;24.37;nan
49651;BME280;35547;55.676;37.492;2022-08-20T06:07:23;100200.78;;;24.44;nan
49651;BME280;35547;55.676;37.492;2022-08-20T06:08:24;100191.78;;;24.60;nan
49651;BME280;35547;55.676;37.492;2022-08-20T06:09:25;100204.59;;;24.40;nan
49651;BME280;35547;55.676;37.492;2022-08-20T06:10:26;100200.53;;;24.07;nan
49651;BME280;35547;55.676;37.492;2022-08-20T06:11:26;100205.28;;;24.44;nan
49651;BME280;35547;55.676;37.492;2022-08-20T06:12:27;100195.19;;;24.35;nan
49651;BME280;35547;55.676;37.492;2022-08-20T06:13:27;100206.03;;;24.73;nan
49651;BME280;35547;55.676;37.492;2022-08-20T06:14:28;100204.13;;;24.88;nan
49651;BME280;35547;55.676;37.492;2022-08-20T06:15:30;100206.03;;;24.73;nan
49651;BME280;35547;55.676;37.492;2022-08-20T06:16:30;100210.22;;;24.90;nan
49651;BME280;35547;55.676;37.492;2022-08-20T06:17:31;100205.66;;;25.05;nan
49651;BME280;35547;55.676;37.492;2022-08-20T06:18:35;100206.75;;;25.15;nan
49651;BME280;35547;55.676;37.492;2022-08-20T06:19:36;100206.03;;;25.26;nan
49651;BME280;35547;55.676;37.492;2022-08-20T06:20:38;100201.84;;;25.47;nan
49651;BME280;35547;55.676;37.492;2022-08-20T06:21:39;100199.53;;;24.90;nan
49651;BME280;35547;55.676;37.492;2022-08-20T06:22:40;100202.81;;;24.68;nan
49651;BME280;35547;55.676;37.492;2022-08-20T06:23:40;100191.94;;;24.44;nan
49651;BME280;35547;55.676;37.492;2022-08-20T06:24:42;100200.56;;;24.47;nan
49651;BME280;35547;55.676;37.492;2022-08-20T06:25:42;100202.13;;;24.91;nan
49651;BME280;35547;55.676;37.492;2022-08-20T06:26:43;100204.53;;;25.22;nan
49651;BME280;35547;55.676;37.492;2022-08-20T06:27:44;100214.66;;;25.55;nan
49651;BME280;35547;55.676;37.492;2022-08-20T06:28:44;100206.63;;;25.68;nan
49651;BME280;35547;55.676;37.492;2022-08-20T06:29:45;100202.34;;;25.78;nan
49651;BME280;35547;55.676;37.492;2022-08-20T06:30:45;100199.69;;;25.52;nan
49651;BME280;35547;55.676;37.492;2022-08-20T06:31:46;100208.84;;;25.87;nan
49651;BME280;35547;55.676;37.492;2022-08-20T06:32:46;100211.16;;;26.17;nan
49651;BME280;35547;55.676;37.492;2022-08-20T06:33:49;100209.84;;;26.47;nan
49651;BME280;35547;55.676;37.492;2022-08-20T06:34:50;100208.16;;;26.46;nan
49651;BME280;35547;55.676;37.492;2022-08-20T06:35:51;100201.91;;;26.45;nan
49651;BME280;35547;55.676;37.492;2022-08-20T06:36:51;100198.78;;;26.03;nan
49651;BME280;35547;55.676;37.492;2022-08-20T06:37:52;100207.53;;;26.18;nan
49651;BME280;35547;55.676;37.492;2022-08-20T06:38:52;100205.09;;;26.26;nan
49651;BME280;35547;55.676;37.492;2022-08-20T06:40:09;100202.72;;;26.34;nan
49651;BME280;35547;55.676;37.492;2022-08-20T06:41:10;100210.19;;;26.18;nan
49651;BME280;35547;55.676;37.492;2022-08-20T06:42:11;100210.59;;;26.25;nan
49651;BME280;35547;55.676;37.492;2022-08-20T06:43:12;100198.75;;;26.40;nan
49651;BME280;35547;55.676;37.492;2022-08-20T06:44:13;100194.97;;;26.19;nan
49651;BME280;35547;55.676;37.492;2022-08-20T06:45:29;100203.06;;;26.54;nan
49651;BME280;35547;55.676;37.492;2022-08-20T06:46:30;100194.97;;;26.43;nan
49651;BME280;35547;55.676;37.492;2022-08-20T06:47:32;100192.13;;;26.09;nan
49651;BME280;35547;55.676;37.492;2022-08-20T06:48:33;100196.16;;;25.90;nan
49651;BME280;35547;55.676;37.492;2022-08-20T06:49:35;100194.97;;;25.94;nan
49651;BME280;35547;55.676;37.492;2022-08-20T06:50:42;100183.44;;;26.18;nan
49651;BME280;35547;55.676;37.492;2022-08-20T06:51:43;100165.06;;;25.12;nan
49651;BME280;35547;55.676;37.492;2022-08-20T06:52:44;100161.28;;;24.77;nan
49651;BME280;35547;55.676;37.492;2022-08-20T06:53:46;100172.78;;;24.64;nan
49651;BME280;35547;55.676;37.492;2022-08-20T06:54:47;100176.03;;;25.08;nan
49651;BME280;35547;55.676;37.492;2022-08-20T06:55:53;100173.19;;;25.49;nan
49651;BME280;35547;55.676;37.492;2022-08-20T06:56:54;100173.63;;;26.06;nan
49651;BME280;35547;55.676;37.492;2022-08-20T06:57:59;100173.41;;;26.33;nan
49651;BME280;35547;55.676;37.492;2022-08-20T06:59:00;100188.03;;;26.40;nan
49651;BME280;35547;55.676;37.492;2022-08-20T07:00:04;100182.09;;;26.00;nan
49651;BME280;35547;55.676;37.492;2022-08-20T07:01:09;100168.22;;;25.94;nan
49651;BME280;35547;55.676;37.492;2022-08-20T07:02:10;100172.78;;;25.56;nan
49651;BME280;35547;55.676;37.492;2022-08-20T07:03:11;100182.16;;;25.61;nan
49651;BME280;35547;55.676;37.492;2022-08-20T07:04:13;100172.63;;;25.70;nan
49651;BME280;35547;55.676;37.492;2022-08-20T07:05:14;100144.28;;;25.67;nan
49651;BME280;35547;55.676;37.492;2022-08-20T07:06:16;100177.16;;;25.31;nan
49651;BME280;35547;55.676;37.492;2022-08-20T07:07:17;100167.47;;;25.92;nan
49651;BME280;35547;55.676;37.492;2022-08-20T07:08:19;100179.19;;;26.03;nan
49651;BME280;35547;55.676;37.492;2022-08-20T07:09:21;100178.63;;;26.59;nan
49651;BME280;35547;55.676;37.492;2022-08-20T07:10:24;100176.28;;;26.54;nan
49651;BME280;35547;55.676;37.492;2022-08-20T07:11:25;100169.22;;;26.53;nan
49651;BME280;35547;55.676;37.492;2022-08-20T07:12:25;100173.81;;;26.40;nan
49651;BME280;35547;55.676;37.492;2022-08-20T07:13:29;100162.41;;;26.01;nan
49651;BME280;35547;55.676;37.492;2022-08-20T07:14:30;100162.31;;;25.77;nan
49651;BME280;35547;55.676;37.492;2022-08-20T07:15:31;100167.41;;;25.56;nan
49651;BME280;35547;55.676;37.492;2022-08-20T07:16:32;100156.00;;;25.41;nan
49651;BME280;35547;55.676;37.492;2022-08-20T07:17:34;100168.16;;;25.58;nan
49651;BME280;35547;55.676;37.492;2022-08-20T07:18:35;100161.47;;;25.76;nan
49651;BME280;35547;55.676;37.492;2022-08-20T07:19:36;100152.16;;;25.94;nan
49651;BME280;35547;55.676;37.492;2022-08-20T07:20:37;100153.72;;;26.10;nan
49651;BME280;35547;55.676;37.492;2022-08-20T07:21:39;100160.69;;;25.87;nan
49651;BME280;35547;55.676;37.492;2022-08-20T07:22:41;100168.03;;;26.09;nan
49651;BME280;35547;55.676;37.492;2022-08-20T07:23:42;100152.00;;;25.46;nan
49651;BME280;35547;55.676;37.492;2022-08-20T07:24:43;100165.00;;;25.89;nan
49651;BME280;35547;55.676;37.492;2022-08-20T07:25:43;100169.44;;;26.50;nan
49651;BME280;35547;55.676;37.492;2022-08-20T07:26:44;100136.13;;;25.82;nan
49651;BME280;35547;55.676;37.492;2022-08-20T07:27:45;100162.84;;;25.45;nan
49651;BME280;35547;55.676;37.492;2022-08-20T07:28:46;100153.22;;;25.92;nan
49651;BME280;35547;55.676;37.492;2022-08-20T07:29:48;100163.66;;;26.08;nan
49651;BME280;35547;55.676;37.492;2022-08-20T07:31:07;100160.69;;;26.48;nan
49651;BME280;35547;55.676;37.492;2022-08-20T07:32:26;100155.97;;;26.27;nan
49651;BME280;35547;55.676;37.492;2022-08-20T07:33:36;100152.97;;;26.32;nan
49651;BME280;35547;55.676;37.492;2022-08-20T07:34:38;100157.81;;;26.27;nan
49651;BME280;35547;55.676;37.492;2022-08-20T07:35:40;100153.97;;;26.42;nan
49651;BME280;35547;55.676;37.492;2022-08-20T07:36:41;100143.28;;;26.42;nan
49651;BME280;35547;55.676;37.492;2022-08-20T07:37:45;100148.97;;;26.38;nan
49651;BME280;35547;55.676;37.492;2022-08-20T07:38:47;100160.34;;;26.04;nan
49651;BME280;35547;55.676;37.492;2022-08-20T07:39:51;100164.97;;;26.26;nan
49651;BME280;35547;55.676;37.492;2022-08-20T07:40:56;100154.09;;;26.41;nan
49651;BME280;35547;55.676;37.492;2022-08-20T07:41:57;100159.09;;;26.21;nan
49651;BME280;35547;55.676;37.492;2022-08-20T07:43:06;100162.41;;;26.01;nan
49651;BME280;35547;55.676;37.492;2022-08-20T07:44:06;100147.91;;;25.79;nan
49651;BME280;35547;55.676;37.492;2022-08-20T07:45:10;100164.34;;;25.99;nan
49651;BME280;35547;55.676;37.492;2022-08-20T07:46:13;100166.41;;;25.69;nan
49651;BME280;35547;55.676;37.492;2022-08-20T07:47:17;100167.88;;;25.37;nan
49651;BME280;35547;55.676;37.492;2022-08-20T07:48:18;100156.53;;;25.83;nan
49651;BME280;35547;55.676;37.492;2022-08-20T07:49:21;100168.28;;;26.30;nan
49651;BME280;35547;55.676;37.492;2022-08-20T07:50:24;100169.31;;;26.40;nan
49651;BME280;35547;55.676;37.492;2022-08-20T07:51:26;100172.91;;;26.87;nan
49651;BME280;35547;55.676;37.492;2022-08-20T07:52:27;100164.97;;;26.50;nan
49651;BME280;35547;55.676;37.492;2022-08-20T07:53:27;100162.59;;;25.61;nan
49651;BME280;35547;55.676;37.492;2022-08-20T07:54:28;100169.50;;;25.76;nan
49651;BME280;35547;55.676;37.492;2022-08-20T07:55:29;100174.72;;;26.27;nan
49651;BME280;35547;55.676;37.492;2022-08-20T07:56:33;100171.06;;;25.42;nan
49651;BME280;35547;55.676;37.492;2022-08-20T07:57:34;100171.69;;;26.08;nan
49651;BME280;35547;55.676;37.492;2022-08-20T07:58:35;100173.41;;;26.33;nan
49651;BME280;35547;55.676;37.492;2022-08-20T07:59:37;100169.34;;;26.51;nan
49651;BME280;35547;55.676;37.492;2022-08-20T08:00:41;100170.72;;;27.04;nan
49651;BME280;35547;55.676;37.492;2022-08-20T08:01:48;100160.09;;;26.80;nan
49651;BME280;35547;55.676;37.492;2022-08-20T08:02:49;100172.88;;;26.76;nan
49651;BME280;35547;55.676;37.492;2022-08-20T08:03:50;100163.13;;;27.33;nan
49651;BME280;35547;55.676;37.492;2022-08-20T08:04:54;100177.25;;;28.03;nan
49651;BME280;35547;55.676;37.492;2022-08-20T08:05:55;100171.38;;;28.09;nan
49651;BME280;35547;55.676;37.492;2022-08-20T08:06:59;100174.28;;;28.17;nan
49651;BME280;35547;55.676;37.492;2022-08-20T08:08:12;100170.59;;;28.29;nan
49651;BME280;35547;55.676;37.492;2022-08-20T08:09:13;100166.53;;;28.35;nan
49651;BME280;35547;55.676;37.492;2022-08-20T08:10:17;100170.22;;;27.90;nan
49651;BME280;35547;55.676;37.492;2022-08-20T08:11:29;100159.69;;;27.08;nan
49651;BME280;35547;55.676;37.492;2022-08-20T08:12:43;100168.06;;;27.04;nan
49651;BME280;35547;55.676;37.492;2022-08-20T08:13:47;100181.22;;;26.95;nan
49651;BME280;35547;55.676;37.492;2022-08-20T08:14:48;100184.13;;;27.04;nan
49651;BME280;35547;55.676;37.492;2022-08-20T08:15:49;100183.47;;;27.35;nan
49651;BME280;35547;55.676;37.492;2022-08-20T08:16:55;100183.28;;;27.03;nan
49651;BME280;35547;55.676;37.492;2022-08-20T08:17:59;100187.25;;;27.33;nan
49651;BME280;35547;55.676;37.492;2022-08-20T08:19:04;100193.00;;;27.62;nan
49651;BME280;35547;55.676;37.492;2022-08-20T08:20:07;100189.72;;;27.47;nan
49651;BME280;35547;55.676;37.492;2022-08-20T08:21:09;100174.84;;;27.32;nan
49651;BME280;35547;55.676;37.492;2022-08-20T08:22:23;100204.09;;;27.35;nan
49651;BME280;35547;55.676;37.492;2022-08-20T08:23:23;100194.22;;;27.58;nan
49651;BME280;35547;55.676;37.492;2022-08-20T08:24:24;100196.28;;;27.66;nan
49651;BME280;35547;55.676;37.492;2022-08-20T08:25:25;100192.78;;;27.07;nan
49651;BME280;35547;55.676;37.492;2022-08-20T08:26:26;100187.88;;;26.79;nan
49651;BME280;35547;55.676;37.492;2022-08-20T08:27:30;100192.66;;;26.62;nan
49651;BME280;35547;55.676;37.492;2022-08-20T08:28:36;100188.38;;;26.35;nan
49651;BME280;35547;55.676;37.492;2022-08-20T08:29:39;100189.22;;;26.12;nan
49651;BME280;35547;55.676;37.492;2022-08-20T08:30:41;100183.94;;;26.47;nan
49651;BME280;35547;55.676;37.492;2022-08-20T08:31:46;100195.88;;;26.30;nan
49651;BME280;35547;55.676;37.492;2022-08-20T08:32:48;100187.75;;;26.08;nan
49651;BME280;35547;55.676;37.492;2022-08-20T08:34:11;100176.50;;;25.53;nan
49651;BME280;35547;55.676;37.492;2022-08-20T08:35:25;100191.88;;;24.98;nan
49651;BME280;35547;55.676;37.492;2022-08-20T08:36:27;100203.69;;;25.21;nan
49651;BME280;35547;55.676;37.492;2022-08-20T08:37:30;100197.44;;;25.72;nan
49651;BME280;35547;55.676;37.492;2022-08-20T08:38:34;100193.50;;;25.65;nan
49651;BME280;35547;55.676;37.492;2022-08-20T08:39:37;100192.06;;;25.98;nan
49651;BME280;35547;55.676;37.492;2022-08-20T08:40:39;100193.78;;;25.86;nan
49651;BME280;35547;55.676;37.492;2022-08-20T08:41:44;100208.69;;;25.90;nan
49651;BME280;35547;55.676;37.492;2022-08-20T08:42:51;100201.97;;;26.08;nan
49651;BME280;35547;55.676;37.492;2022-08-20T08:44:09;100197.41;;;26.22;nan
49651;BME280;35547;55.676;37.492;2022-08-20T08:45:13;100205.53;;;25.83;nan
49651;BME280;35547;55.676;37.492;2022-08-20T08:46:22;100203.34;;;26.14;nan
49651;BME280;35547;55.676;37.492;2022-08-20T08:47:29;100200.59;;;26.03;nan
49651;BME280;35547;55.676;37.492;2022-08-20T08:48:35;100202.38;;;26.15;nan
49651;BME280;35547;55.676;37.492;2022-08-20T08:49:35;100205.47;;;26.46;nan
49651;BME280;35547;55.676;37.492;2022-08-20T08:50:36;100206.03;;;26.14;nan
49651;BME280;35547;55.676;37.492;2022-08-20T08:51:52;100199.34;;;26.20;nan
49651;BME280;35547;55.676;37.492;2022-08-20T08:52:56;100195.94;;;26.18;nan
49651;BME280;35547;55.676;37.492;2022-08-20T08:54:00;100199.94;;;26.12;nan
49651;BME280;35547;55.676;37.492;2022-08-20T08:55:05;100202.38;;;26.15;nan
49651;BME280;35547;55.676;37.492;2022-08-20T08:56:07;100201.81;;;25.99;nan
49651;BME280;35547;55.676;37.492;2022-08-20T08:57:08;100211.09;;;26.30;nan
49651;BME280;35547;55.676;37.492;2022-08-20T08:58:11;100201.59;;;26.26;nan
49651;BME280;35547;55.676;37.492;2022-08-20T08:59:11;100190.47;;;25.69;nan
49651;BME280;35547;55.676;37.492;2022-08-20T09:00:16;100195.31;;;25.64;nan
49651;BME280;35547;55.676;37.492;2022-08-20T09:01:19;100195.84;;;25.69;nan
49651;BME280;35547;55.676;37.492;2022-08-20T09:02:23;100205.69;;;25.69;nan
49651;BME280;35547;55.676;37.492;2022-08-20T09:03:30;100206.69;;;26.05;nan
49651;BME280;35547;55.676;37.492;2022-08-20T09:04:35;100201.81;;;26.23;nan
49651;BME280;35547;55.676;37.492;2022-08-20T09:05:45;100211.34;;;25.77;nan
49651;BME280;35547;55.676;37.492;2022-08-20T09:06:48;100198.47;;;25.95;nan
49651;BME280;35547;55.676;37.492;2022-08-20T09:07:50;100210.81;;;26.22;nan
49651;BME280;35547;55.676;37.492;2022-08-20T09:08:55;100207.63;;;26.17;nan
49651;BME280;35547;55.676;37.492;2022-08-20T09:09:57;100208.44;;;25.93;nan
49651;BME280;35547;55.676;37.492;2022-08-20T09:11:04;100199.56;;;25.92;nan
49651;BME280;35547;55.676;37.492;2022-08-20T09:12:13;100210.34;;;26.04;nan
49651;BME280;35547;55.676;37.492;2022-08-20T09:13:14;100218.06;;;25.95;nan
49651;BME280;35547;55.676;37.492;2022-08-20T09:14:15;100212.78;;;26.07;nan
49651;BME280;35547;55.676;37.492;2022-08-20T09:15:16;100207.38;;;26.20;nan
49651;BME280;35547;55.676;37.492;2022-08-20T09:16:16;100207.34;;;25.95;nan
49651;BME280;35547;55.676;37.492;2022-08-20T09:17:20;100210.13;;;25.94;nan
49651;BME280;35547;55.676;37.492;2022-08-20T09:18:22;100215.44;;;26.07;nan
49651;BME280;35547;55.676;37.492;2022-08-20T09:19:22;100215.34;;;26.08;nan
49651;BME280;35547;55.676;37.492;2022-08-20T09:20:23;100206.97;;;26.13;nan
49651;BME280;35547;55.676;37.492;2022-08-20T09:21:23;100199.66;;;26.28;nan
49651;BME280;35547;55.676;37.492;2022-08-20T09:22:24;100204.84;;;26.42;nan
49651;BME280;35547;55.676;37.492;2022-08-20T09:23:25;100215.38;;;25.95;nan
49651;BME280;35547;55.676;37.492;2022-08-20T09:24:26;100187.81;;;25.18;nan
49651;BME280;35547;55.676;37.492;2022-08-20T09:25:26;100208.38;;;25.30;nan
49651;BME280;35547;55.676;37.492;2022-08-20T09:26:27;100210.25;;;25.03;nan
49651;BME280;35547;55.676;37.492;2022-08-20T09:27:28;100213.16;;;25.12;nan
49651;BME280;35547;55.676;37.492;2022-08-20T09:28:28;100216.72;;;25.51;nan
49651;BME280;35547;55.676;37.492;2022-08-20T09:29:29;100202.34;;;25.65;nan
49651;BME280;35547;55.676;37.492;2022-08-20T09:30:31;100203.97;;;25.55;nan
49651;BME280;35547;55.676;37.492;2022-08-20T09:31:32;100200.97;;;25.08;nan
49651;BME280;35547;55.676;37.492;2022-08-20T09:32:33;100211.59;;;24.83;nan
49651;BME280;35547;55.676;37.492;2022-08-20T09:33:33;100218.31;;;24.88;nan
49651;BME280;35547;55.676;37.492;2022-08-20T09:34:36;100218.50;;;25.38;nan
49651;BME280;35547;55.676;37.492;2022-08-20T09:35:37;100215.75;;;25.52;nan
49651;BME280;35547;55.676;37.492;2022-08-20T09:36:39;100202.94;;;25.32;nan
49651;BME280;35547;55.676;37.492;2022-08-20T09:37:40;100214.66;;;25.42;nan
49651;BME280;35547;55.676;37.492;2022-08-20T09:38:40;100204.31;;;25.38;nan
49651;BME280;35547;55.676;37.492;2022-08-20T09:39:41;100208.47;;;25.54;nan
49651;BME280;35547;55.676;37.492;2022-08-20T09:40:42;100198.75;;;25.53;nan
49651;BME280;35547;55.676;37.492;2022-08-20T09:41:43;100211.03;;;25.69;nan
49651;BME280;35547;55.676;37.492;2022-08-20T09:42:44;100209.97;;;25.59;nan
49651;BME280;35547;55.676;37.492;2022-08-20T09:43:44;100214.75;;;25.79;nan
49651;BME280;35547;55.676;37.492;2022-08-20T09:44:46;100215.69;;;26.04;nan
49651;BME280;35547;55.676;37.492;2022-08-20T09:45:46;100203.97;;;25.68;nan
49651;BME280;35547;55.676;37.492;2022-08-20T09:46:47;100212.72;;;25.57;nan
49651;BME280;35547;55.676;37.492;2022-08-20T09:47:47;100204.25;;;25.12;nan
49651;BME280;35547;55.676;37.492;2022-08-20T09:48:48;100209.72;;;25.10;nan
49651;BME280;35547;55.676;37.492;2022-08-20T09:49:50;100211.25;;;25.27;nan
49651;BME280;35547;55.676;37.492;2022-08-20T09:50:51;100204.44;;;25.23;nan
49651;BME280;35547;55.676;37.492;2022-08-20T09:51:51;100215.75;;;25.27;nan
49651;BME280;35547;55.676;37.492;2022-08-20T09:52:53;100209.22;;;25.31;nan
49651;BME280;35547;55.676;37.492;2022-08-20T09:53:54;100206.03;;;25.51;nan
49651;BME280;35547;55.676;37.492;2022-08-20T09:55:00;100203.34;;;25.51;nan
49651;BME280;35547;55.676;37.492;2022-08-20T09:56:02;100206.66;;;25.29;nan
49651;BME280;35547;55.676;37.492;2022-08-20T09:57:05;100196.94;;;25.28;nan
49651;BME280;35547;55.676;37.492;2022-08-20T09:58:18;100192.03;;;25.22;nan
49651;BME280;35547;55.676;37.492;2022-08-20T09:59:21;100195.69;;;24.81;nan
49651;BME280;35547;55.676;37.492;2022-08-20T10:00:22;100194.41;;;24.87;nan
49651;BME280;35547;55.676;37.492;2022-08-20T10:01:22;100194.00;;;24.93;nan
49651;BME280;35547;55.676;37.492;2022-08-20T10:02:23;100185.78;;;24.56;nan
49651;BME280;35547;55.676;37.492;2022-08-20T10:03:24;100178.59;;;24.44;nan
49651;BME280;35547;55.676;37.492;2022-08-20T10:04:25;100168.38;;;24.50;nan
49651;BME280;35547;55.676;37.492;2022-08-20T10:05:25;100169.72;;;24.70;nan
49651;BME280;35547;55.676;37.492;2022-08-20T10:06:26;100165.88;;;24.75;nan
49651;BME280;35547;55.676;37.492;2022-08-20T10:07:26;100157.84;;;24.62;nan
49651;BME280;35547;55.676;37.492;2022-08-20T10:08:27;100160.09;;;24.41;nan
49651;BME280;35547;55.676;37.492;2022-08-20T10:09:27;100159.66;;;24.61;nan
49651;BME280;35547;55.676;37.492;2022-08-20T10:10:28;100160.09;;;24.68;nan
49651;BME280;35547;55.676;37.492;2022-08-20T10:11:29;100129.97;;;24.53;nan
49651;BME280;35547;55.676;37.492;2022-08-20T10:12:29;100149.88;;;24.87;nan
49651;BME280;35547;55.676;37.492;2022-08-20T10:13:30;100160.47;;;25.14;nan
49651;BME280;35547;55.676;37.492;2022-08-20T10:14:30;100151.19;;;25.20;nan
49651;BME280;35547;55.676;37.492;2022-08-20T10:15:31;100158.28;;;25.71;nan
49651;BME280;35547;55.676;37.492;2022-08-20T10:16:32;100133.31;;;25.46;nan
49651;BME280;35547;55.676;37.492;2022-08-20T10:17:37;100175.88;;;25.24;nan
49651;BME280;35547;55.676;37.492;2022-08-20T10:18:38;100172.94;;;25.01;nan
49651;BME280;35547;55.676;37.492;2022-08-20T10:19:38;100174.25;;;25.08;nan
49651;BME280;35547;55.676;37.492;2022-08-20T10:20:39;100175.47;;;24.77;nan
49651;BME280;35547;55.676;37.492;2022-08-20T10:21:39;100160.97;;;24.14;nan
49651;BME280;35547;55.676;37.492;2022-08-20T10:22:40;100183.66;;;24.34;nan
49651;BME280;35547;55.676;37.492;2022-08-20T10:23:41;100169.56;;;24.05;nan
49651;BME280;35547;55.676;37.492;2022-08-20T10:24:42;100172.09;;;24.21;nan
49651;BME280;35547;55.676;37.492;2022-08-20T10:25:42;100175.91;;;24.44;nan
49651;BME280;35547;55.676;37.492;2022-08-20T10:26:43;100168.38;;;24.50;nan
49651;BME280;35547;55.676;37.492;2022-08-20T10:27:44;100159.03;;;24.43;nan
49651;BME280;35547;55.676;37.492;2022-08-20T10:28:45;100185.16;;;24.52;nan
49651;BME280;35547;55.676;37.492;2022-08-20T10:29:46;100175.09;;;24.96;nan
49651;BME280;35547;55.676;37.492;2022-08-20T10:30:46;100171.31;;;24.73;nan
49651;BME280;35547;55.676;37.492;2022-08-20T10:31:47;100191.22;;;24.94;nan
49651;BME280;35547;55.676;37.492;2022-08-20T10:32:47;100182.69;;;25.15;nan
49651;BME280;35547;55.676;37.492;2022-08-20T10:33:48;100186.88;;;25.19;nan
49651;BME280;35547;55.676;37.492;2022-08-20T10:34:48;100189.72;;;25.16;nan
49651;BME280;35547;55.676;37.492;2022-08-20T10:35:49;100176.50;;;24.49;nan
49651;BME280;35547;55.676;37.492;2022-08-20T10:36:49;100180.84;;;24.50;nan
49651;BME280;35547;55.676;37.492;2022-08-20T10:37:50;100186.97;;;24.65;nan
49651;BME280;35547;55.676;37.492;2022-08-20T10:38:51;100184.44;;;24.63;nan
49651;BME280;35547;55.676;37.492;2022-08-20T10:39:52;100180.91;;;24.36;nan
49651;BME280;35547;55.676;37.492;2022-08-20T10:40:53;100177.22;;;24.24;nan
49651;BME280;35547;55.676;37.492;2022-08-20T10:41:54;100184.19;;;24.26;nan
49651;BME280;35547;55.676;37.492;2022-08-20T10:42:54;100182.25;;;24.28;nan
49651;BME280;35547;55.676;37.492;2022-08-20T10:43:55;100184.19;;;24.39;nan
49651;BME280;35547;55.676;37.492;2022-08-20T10:44:55;100179.22;;;24.47;nan
49651;BME280;35547;55.676;37.492;2022-08-20T10:45:56;100171.69;;;24.27;nan
49651;BME280;35547;55.676;37.492;2022-08-20T10:46:57;100171.56;;;24.01;nan
49651;BME280;35547;55.676;37.492;2022-08-20T10:47:58;100184.91;;;24.28;nan